sensor_id;sensor_type;location;lat;lon;timestamp;noise_LAeq;noise_LA_min;noise_LA_max;noise_LA01;noise_LA95
71020;Laerm;58902;51.436;5.980;2023-07-24T00:00:04;34.69;33.08;36.44;;
71020;Laerm;58902;51.436;5.980;2023-07-24T00:00:14;40.94;33.26;53.28;;
71020;Laerm;58902;51.436;5.980;2023-07-24T00:00:25;34.92;32.93;36.49;;
71020;Laerm;58902;51.436;5.980;2023-07-24T00:00:35;35.17;33.16;38.18;;
71020;Laerm;58902;51.436;5.980;2023-07-24T00:00:45;35.38;33.62;37.31;;
71020;Laerm;58902;51.436;5.980;2023-07-24T00:00:56;35.64;33.00;46.56;;
71020;Laerm;58902;51.436;5.980;2023-07-24T00:01:06;34.44;32.82;36.10;;
71020;Laerm;58902;51.436;5.980;2023-07-24T00:01:16;34.44;32.58;37.33;;
71020;Laerm;58902;51.436;5.980;2023-07-24T00:01:28;34.89;32.39;38.44;;
71020;Laerm;58902;51.436;5.980;2023-07-24T00:01:38;35.77;33.61;37.70;;
71020;Laerm;58902;51.436;5.980;2023-07-24T00:01:48;35.57;33.00;37.11;;
71020;Laerm;58902;51.436;5.980;2023-07-24T00:01:59;34.22;32.62;36.62;;
71020;Laerm;58902;51.436;5.980;2023-07-24T00:02:09;34.23;32.57;35.90;;
71020;Laerm;58902;51.436;5.980;2023-07-24T00:02:20;34.33;32.40;36.81;;
71020;Laerm;58902;51.436;5.980;2023-07-24T00:02:30;34.28;32.52;37.23;;
71020;Laerm;58902;51.436;5.980;2023-07-24T00:02:40;34.39;32.78;36.11;;
71020;Laerm;58902;51.436;5.980;2023-07-24T00:02:51;34.38;32.46;38.45;;
71020;Laerm;58902;51.436;5.980;2023-07-24T00:03:03;35.86;32.94;38.89;;
71020;Laerm;58902;51.436;5.980;2023-07-24T00:03:13;34.85;32.53;38.30;;
71020;Laerm;58902;51.436;5.980;2023-07-24T00:03:24;34.09;32.43;35.96;;
71020;Laerm;58902;51.436;5.980;2023-07-24T00:03:34;34.07;32.03;36.03;;
71020;Laerm;58902;51.436;5.980;2023-07-24T00:03:45;33.97;32.23;36.85;;
71020;Laerm;58902;51.436;5.980;2023-07-24T00:03:55;34.38;32.49;36.43;;
71020;Laerm;58902;51.436;5.980;2023-07-24T00:04:06;34.74;32.58;40.82;;
71020;Laerm;58902;51.436;5.980;2023-07-24T00:04:16;34.53;32.84;36.71;;
71020;Laerm;58902;51.436;5.980;2023-07-24T00:04:26;34.64;32.85;36.34;;
71020;Laerm;58902;51.436;5.980;2023-07-24T00:04:37;34.62;32.77;37.86;;
71020;Laerm;58902;51.436;5.980;2023-07-24T00:04:47;34.69;33.10;37.04;;
71020;Laerm;58902;51.436;5.980;2023-07-24T00:04:57;35.89;33.36;38.01;;
71020;Laerm;58902;51.436;5.980;2023-07-24T00:05:08;35.95;34.17;48.53;;
71020;Laerm;58902;51.436;5.980;2023-07-24T00:05:18;35.90;33.05;39.33;;
71020;Laerm;58902;51.436;5.980;2023-07-24T00:05:29;34.42;32.82;36.10;;
71020;Laerm;58902;51.436;5.980;2023-07-24T00:05:39;34.58;32.77;44.30;;
71020;Laerm;58902;51.436;5.980;2023-07-24T00:05:49;35.51;33.22;39.00;;
71020;Laerm;58902;51.436;5.980;2023-07-24T00:06:00;35.10;33.36;36.86;;
71020;Laerm;58902;51.436;5.980;2023-07-24T00:06:10;36.67;34.78;39.13;;
71020;Laerm;58902;51.436;5.980;2023-07-24T00:06:21;35.04;33.25;38.00;;
71020;Laerm;58902;51.436;5.980;2023-07-24T00:06:31;35.20;33.58;43.05;;
71020;Laerm;58902;51.436;5.980;2023-07-24T00:06:41;35.26;33.40;37.38;;
71020;Laerm;58902;51.436;5.980;2023-07-24T00:06:52;35.20;33.71;37.04;;
71020;Laerm;58902;51.436;5.980;2023-07-24T00:07:02;35.02;33.75;36.61;;
71020;Laerm;58902;51.436;5.980;2023-07-24T00:07:12;34.96;33.69;36.61;;
71020;Laerm;58902;51.436;5.980;2023-07-24T00:07:23;34.90;33.53;37.27;;
71020;Laerm;58902;51.436;5.980;2023-07-24T00:07:33;34.93;33.31;36.33;;
71020;Laerm;58902;51.436;5.980;2023-07-24T00:07:43;35.02;33.46;37.20;;
71020;Laerm;58902;51.436;5.980;2023-07-24T00:07:54;34.94;33.12;36.29;;
71020;Laerm;58902;51.436;5.980;2023-07-24T00:08:04;35.10;33.33;36.95;;
71020;Laerm;58902;51.436;5.980;2023-07-24T00:08:15;35.16;33.31;36.79;;
71020;Laerm;58902;51.436;5.980;2023-07-24T00:08:26;35.17;33.49;37.39;;
71020;Laerm;58902;51.436;5.980;2023-07-24T00:08:37;35.07;33.53;36.82;;
71020;Laerm;58902;51.436;5.980;2023-07-24T00:08:47;35.21;33.25;49.93;;
71020;Laerm;58902;51.436;5.980;2023-07-24T00:08:57;35.18;33.37;36.86;;
71020;Laerm;58902;51.436;5.980;2023-07-24T00:09:08;34.90;33.01;36.56;;
71020;Laerm;58902;51.436;5.980;2023-07-24T00:09:18;34.90;32.51;41.11;;
71020;Laerm;58902;51.436;5.980;2023-07-24T00:09:28;34.44;32.34;36.28;;
71020;Laerm;58902;51.436;5.980;2023-07-24T00:09:39;34.29;32.89;35.79;;
71020;Laerm;58902;51.436;5.980;2023-07-24T00:09:50;34.37;32.72;35.84;;
71020;Laerm;58902;51.436;5.980;2023-07-24T00:10:00;34.16;32.34;37.19;;
71020;Laerm;58902;51.436;5.980;2023-07-24T00:10:10;34.25;32.55;36.64;;
71020;Laerm;58902;51.436;5.980;2023-07-24T00:10:21;34.15;32.07;36.66;;
71020;Laerm;58902;51.436;5.980;2023-07-24T00:10:31;34.35;32.05;45.90;;
71020;Laerm;58902;51.436;5.980;2023-07-24T00:10:41;34.09;32.33;36.02;;
71020;Laerm;58902;51.436;5.980;2023-07-24T00:10:52;34.12;32.19;38.05;;
71020;Laerm;58902;51.436;5.980;2023-07-24T00:11:02;34.09;32.23;36.76;;
71020;Laerm;58902;51.436;5.980;2023-07-24T00:11:14;34.28;32.64;36.58;;
71020;Laerm;58902;51.436;5.980;2023-07-24T00:11:24;34.22;32.29;36.35;;
71020;Laerm;58902;51.436;5.980;2023-07-24T00:11:35;34.32;32.39;42.12;;
71020;Laerm;58902;51.436;5.980;2023-07-24T00:11:45;33.96;32.15;35.87;;
71020;Laerm;58902;51.436;5.980;2023-07-24T00:11:55;34.14;32.32;36.30;;
71020;Laerm;58902;51.436;5.980;2023-07-24T00:12:06;34.17;32.55;35.94;;
71020;Laerm;58902;51.436;5.980;2023-07-24T00:12:16;33.42;31.02;37.32;;
71020;Laerm;58902;51.436;5.980;2023-07-24T00:12:27;31.24;28.95;33.91;;
71020;Laerm;58902;51.436;5.980;2023-07-24T00:12:37;31.81;29.08;50.06;;
71020;Laerm;58902;51.436;5.980;2023-07-24T00:12:47;31.21;29.18;34.80;;
71020;Laerm;58902;51.436;5.980;2023-07-24T00:12:58;32.14;30.06;37.69;;
71020;Laerm;58902;51.436;5.980;2023-07-24T00:13:08;32.00;29.76;37.41;;
71020;Laerm;58902;51.436;5.980;2023-07-24T00:13:18;33.10;30.79;35.73;;
71020;Laerm;58902;51.436;5.980;2023-07-24T00:13:29;32.82;30.89;36.07;;
71020;Laerm;58902;51.436;5.980;2023-07-24T00:13:39;32.62;30.47;35.08;;
71020;Laerm;58902;51.436;5.980;2023-07-24T00:13:50;31.96;30.08;35.16;;
71020;Laerm;58902;51.436;5.980;2023-07-24T00:14:00;31.44;29.59;34.25;;
71020;Laerm;58902;51.436;5.980;2023-07-24T00:14:10;31.26;29.15;35.77;;
71020;Laerm;58902;51.436;5.980;2023-07-24T00:14:21;30.66;28.65;32.89;;
71020;Laerm;58902;51.436;5.980;2023-07-24T00:14:31;30.41;29.08;34.51;;
71020;Laerm;58902;51.436;5.980;2023-07-24T00:14:41;30.97;29.13;32.94;;
71020;Laerm;58902;51.436;5.980;2023-07-24T00:14:52;31.84;29.48;34.72;;
71020;Laerm;58902;51.436;5.980;2023-07-24T00:15:03;31.07;29.46;33.30;;
71020;Laerm;58902;51.436;5.980;2023-07-24T00:15:13;31.00;29.73;33.99;;
71020;Laerm;58902;51.436;5.980;2023-07-24T00:15:23;30.78;29.40;34.81;;
71020;Laerm;58902;51.436;5.980;2023-07-24T00:15:34;30.60;29.05;34.14;;
71020;Laerm;58902;51.436;5.980;2023-07-24T00:15:44;30.52;28.73;32.00;;
71020;Laerm;58902;51.436;5.980;2023-07-24T00:15:55;30.42;29.08;34.53;;
71020;Laerm;58902;51.436;5.980;2023-07-24T00:16:06;31.18;29.24;44.32;;
71020;Laerm;58902;51.436;5.980;2023-07-24T00:16:16;30.94;29.66;33.19;;
71020;Laerm;58902;51.436;5.980;2023-07-24T00:16:26;31.44;29.63;35.02;;
71020;Laerm;58902;51.436;5.980;2023-07-24T00:16:37;32.91;29.72;51.71;;
71020;Laerm;58902;51.436;5.980;2023-07-24T00:16:47;31.62;29.85;33.14;;
71020;Laerm;58902;51.436;5.980;2023-07-24T00:16:57;31.79;30.15;35.60;;
71020;Laerm;58902;51.436;5.980;2023-07-24T00:17:08;31.69;29.77;38.91;;
71020;Laerm;58902;51.436;5.980;2023-07-24T00:17:18;31.56;29.67;38.70;;
71020;Laerm;58902;51.436;5.980;2023-07-24T00:17:28;33.24;30.18;39.21;;
71020;Laerm;58902;51.436;5.980;2023-07-24T00:17:39;34.04;32.81;35.92;;
71020;Laerm;58902;51.436;5.980;2023-07-24T00:17:49;33.94;31.91;35.97;;
71020;Laerm;58902;51.436;5.980;2023-07-24T00:18:00;32.85;30.69;35.35;;
71020;Laerm;58902;51.436;5.980;2023-07-24T00:18:10;33.20;31.86;34.79;;
71020;Laerm;58902;51.436;5.980;2023-07-24T00:18:20;33.93;31.89;38.41;;
71020;Laerm;58902;51.436;5.980;2023-07-24T00:18:31;34.16;31.90;38.72;;
71020;Laerm;58902;51.436;5.980;2023-07-24T00:18:41;33.34;31.85;35.00;;
71020;Laerm;58902;51.436;5.980;2023-07-24T00:18:51;34.56;32.31;39.57;;
71020;Laerm;58902;51.436;5.980;2023-07-24T00:19:02;34.30;32.40;37.65;;
71020;Laerm;58902;51.436;5.980;2023-07-24T00:19:12;34.71;32.54;38.27;;
71020;Laerm;58902;51.436;5.980;2023-07-24T00:19:22;34.51;32.20;43.97;;
71020;Laerm;58902;51.436;5.980;2023-07-24T00:19:33;31.92;30.00;35.09;;
71020;Laerm;58902;51.436;5.980;2023-07-24T00:19:43;31.38;29.95;38.30;;
71020;Laerm;58902;51.436;5.980;2023-07-24T00:19:54;31.71;30.18;33.90;;
71020;Laerm;58902;51.436;5.980;2023-07-24T00:20:04;31.72;30.22;36.27;;
71020;Laerm;58902;51.436;5.980;2023-07-24T00:20:15;31.93;30.37;33.20;;
71020;Laerm;58902;51.436;5.980;2023-07-24T00:20:25;32.37;31.00;35.06;;
71020;Laerm;58902;51.436;5.980;2023-07-24T00:20:36;32.45;31.38;34.02;;
71020;Laerm;58902;51.436;5.980;2023-07-24T00:20:46;32.80;31.11;36.27;;
71020;Laerm;58902;51.436;5.980;2023-07-24T00:20:56;33.01;31.71;36.10;;
71020;Laerm;58902;51.436;5.980;2023-07-24T00:21:07;33.50;32.10;35.08;;
71020;Laerm;58902;51.436;5.980;2023-07-24T00:21:17;34.23;32.55;43.75;;
71020;Laerm;58902;51.436;5.980;2023-07-24T00:21:27;33.98;32.62;35.28;;
71020;Laerm;58902;51.436;5.980;2023-07-24T00:21:38;33.61;32.07;37.69;;
71020;Laerm;58902;51.436;5.980;2023-07-24T00:21:48;33.57;32.05;34.87;;
71020;Laerm;58902;51.436;5.980;2023-07-24T00:21:58;33.76;32.16;39.91;;
71020;Laerm;58902;51.436;5.980;2023-07-24T00:22:09;34.42;32.03;36.66;;
71020;Laerm;58902;51.436;5.980;2023-07-24T00:22:19;34.89;32.71;37.05;;
71020;Laerm;58902;51.436;5.980;2023-07-24T00:22:30;34.43;33.08;36.03;;
71020;Laerm;58902;51.436;5.980;2023-07-24T00:22:40;34.21;32.63;35.83;;
71020;Laerm;58902;51.436;5.980;2023-07-24T00:22:50;33.97;32.52;35.89;;
71020;Laerm;58902;51.436;5.980;2023-07-24T00:23:01;34.12;32.40;35.92;;
71020;Laerm;58902;51.436;5.980;2023-07-24T00:23:11;33.87;32.36;35.38;;
71020;Laerm;58902;51.436;5.980;2023-07-24T00:23:22;33.88;32.28;36.08;;
71020;Laerm;58902;51.436;5.980;2023-07-24T00:23:32;33.76;32.32;35.20;;
71020;Laerm;58902;51.436;5.980;2023-07-24T00:23:42;33.94;31.78;35.30;;
71020;Laerm;58902;51.436;5.980;2023-07-24T00:23:53;33.94;31.88;35.47;;
71020;Laerm;58902;51.436;5.980;2023-07-24T00:24:03;33.91;31.84;35.73;;
71020;Laerm;58902;51.436;5.980;2023-07-24T00:24:13;34.05;32.53;35.54;;
71020;Laerm;58902;51.436;5.980;2023-07-24T00:24:24;34.53;32.49;36.37;;
71020;Laerm;58902;51.436;5.980;2023-07-24T00:24:34;35.15;33.04;38.90;;
71020;Laerm;58902;51.436;5.980;2023-07-24T00:24:44;34.96;33.10;37.32;;
71020;Laerm;58902;51.436;5.980;2023-07-24T00:24:55;34.85;33.15;37.00;;
71020;Laerm;58902;51.436;5.980;2023-07-24T00:25:05;35.13;33.12;38.61;;
71020;Laerm;58902;51.436;5.980;2023-07-24T00:25:16;34.28;32.38;36.37;;
71020;Laerm;58902;51.436;5.980;2023-07-24T00:25:26;34.53;32.79;36.18;;
71020;Laerm;58902;51.436;5.980;2023-07-24T00:25:37;34.67;33.23;35.91;;
71020;Laerm;58902;51.436;5.980;2023-07-24T00:25:47;34.86;33.20;36.42;;
71020;Laerm;58902;51.436;5.980;2023-07-24T00:25:57;34.27;32.45;37.03;;
71020;Laerm;58902;51.436;5.980;2023-07-24T00:26:08;34.32;32.67;35.79;;
71020;Laerm;58902;51.436;5.980;2023-07-24T00:26:18;34.48;32.73;36.28;;
71020;Laerm;58902;51.436;5.980;2023-07-24T00:26:28;34.06;32.00;35.75;;
71020;Laerm;58902;51.436;5.980;2023-07-24T00:26:39;34.36;32.11;46.24;;
71020;Laerm;58902;51.436;5.980;2023-07-24T00:26:49;33.97;32.02;35.92;;
71020;Laerm;58902;51.436;5.980;2023-07-24T00:27:00;34.17;32.43;35.96;;
71020;Laerm;58902;51.436;5.980;2023-07-24T00:27:10;34.59;32.79;36.77;;
71020;Laerm;58902;51.436;5.980;2023-07-24T00:27:20;35.82;32.63;40.07;;
71020;Laerm;58902;51.436;5.980;2023-07-24T00:27:31;35.74;33.04;41.00;;
71020;Laerm;58902;51.436;5.980;2023-07-24T00:27:41;35.15;32.83;37.95;;
71020;Laerm;58902;51.436;5.980;2023-07-24T00:27:51;36.25;33.97;38.98;;
71020;Laerm;58902;51.436;5.980;2023-07-24T00:28:02;35.75;33.09;40.47;;
71020;Laerm;58902;51.436;5.980;2023-07-24T00:28:12;34.61;32.88;36.57;;
71020;Laerm;58902;51.436;5.980;2023-07-24T00:28:22;34.45;32.68;36.01;;
71020;Laerm;58902;51.436;5.980;2023-07-24T00:28:33;34.38;33.00;35.99;;
71020;Laerm;58902;51.436;5.980;2023-07-24T00:28:43;35.21;32.70;38.93;;
71020;Laerm;58902;51.436;5.980;2023-07-24T00:28:53;35.03;33.33;40.12;;
71020;Laerm;58902;51.436;5.980;2023-07-24T00:29:04;34.77;32.73;36.79;;
71020;Laerm;58902;51.436;5.980;2023-07-24T00:29:14;34.64;32.93;36.06;;
71020;Laerm;58902;51.436;5.980;2023-07-24T00:29:24;34.69;33.01;37.47;;
71020;Laerm;58902;51.436;5.980;2023-07-24T00:29:35;35.51;33.35;37.72;;
71020;Laerm;58902;51.436;5.980;2023-07-24T00:29:45;35.51;34.00;37.77;;
71020;Laerm;58902;51.436;5.980;2023-07-24T00:29:56;35.01;33.51;36.23;;
71020;Laerm;58902;51.436;5.980;2023-07-24T00:30:06;34.99;33.55;36.39;;
71020;Laerm;58902;51.436;5.980;2023-07-24T00:30:17;35.10;33.17;36.89;;
71020;Laerm;58902;51.436;5.980;2023-07-24T00:30:27;35.32;33.63;36.73;;
71020;Laerm;58902;51.436;5.980;2023-07-24T00:30:37;35.05;33.49;36.68;;
71020;Laerm;58902;51.436;5.980;2023-07-24T00:30:48;35.03;33.24;37.20;;
71020;Laerm;58902;51.436;5.980;2023-07-24T00:30:58;35.15;33.48;38.19;;
71020;Laerm;58902;51.436;5.980;2023-07-24T00:31:08;40.02;33.47;53.24;;
71020;Laerm;58902;51.436;5.980;2023-07-24T00:31:21;35.20;33.66;36.95;;
71020;Laerm;58902;51.436;5.980;2023-07-24T00:31:32;34.98;33.71;36.62;;
71020;Laerm;58902;51.436;5.980;2023-07-24T00:31:42;35.27;33.71;44.84;;
71020;Laerm;58902;51.436;5.980;2023-07-24T00:31:53;35.04;33.53;36.53;;
71020;Laerm;58902;51.436;5.980;2023-07-24T00:32:03;35.44;33.79;44.34;;
71020;Laerm;58902;51.436;5.980;2023-07-24T00:32:13;35.35;33.54;36.79;;
71020;Laerm;58902;51.436;5.980;2023-07-24T00:32:24;35.40;33.49;37.04;;
71020;Laerm;58902;51.436;5.980;2023-07-24T00:32:34;35.52;34.00;37.32;;
71020;Laerm;58902;51.436;5.980;2023-07-24T00:32:45;36.06;33.87;39.64;;
71020;Laerm;58902;51.436;5.980;2023-07-24T00:32:55;36.30;33.83;39.65;;
71020;Laerm;58902;51.436;5.980;2023-07-24T00:33:05;36.10;34.31;44.05;;
71020;Laerm;58902;51.436;5.980;2023-07-24T00:33:15;35.13;33.20;37.34;;
71020;Laerm;58902;51.436;5.980;2023-07-24T00:33:26;34.61;33.04;36.14;;
71020;Laerm;58902;51.436;5.980;2023-07-24T00:33:36;34.62;32.75;36.17;;
71020;Laerm;58902;51.436;5.980;2023-07-24T00:33:46;34.35;32.45;35.90;;
71020;Laerm;58902;51.436;5.980;2023-07-24T00:33:57;34.11;32.48;35.73;;
71020;Laerm;58902;51.436;5.980;2023-07-24T00:34:10;34.23;32.30;35.83;;
71020;Laerm;58902;51.436;5.980;2023-07-24T00:34:20;34.45;32.71;39.83;;
71020;Laerm;58902;51.436;5.980;2023-07-24T00:34:31;34.26;32.46;36.10;;
71020;Laerm;58902;51.436;5.980;2023-07-24T00:34:41;34.29;32.55;35.91;;
71020;Laerm;58902;51.436;5.980;2023-07-24T00:34:51;34.46;32.85;35.82;;
71020;Laerm;58902;51.436;5.980;2023-07-24T00:35:02;34.25;32.21;36.55;;
71020;Laerm;58902;51.436;5.980;2023-07-24T00:35:12;34.59;33.03;36.10;;
71020;Laerm;58902;51.436;5.980;2023-07-24T00:35:22;34.24;32.48;35.79;;
71020;Laerm;58902;51.436;5.980;2023-07-24T00:35:33;34.05;32.43;35.89;;
71020;Laerm;58902;51.436;5.980;2023-07-24T00:35:43;34.17;32.59;35.88;;
71020;Laerm;58902;51.436;5.980;2023-07-24T00:35:56;34.36;32.79;35.93;;
71020;Laerm;58902;51.436;5.980;2023-07-24T00:36:07;35.12;32.71;41.18;;
71020;Laerm;58902;51.436;5.980;2023-07-24T00:36:18;35.01;32.70;37.46;;
71020;Laerm;58902;51.436;5.980;2023-07-24T00:36:28;34.53;32.60;36.45;;
71020;Laerm;58902;51.436;5.980;2023-07-24T00:36:38;34.24;32.88;35.82;;
71020;Laerm;58902;51.436;5.980;2023-07-24T00:36:49;34.73;32.99;37.76;;
71020;Laerm;58902;51.436;5.980;2023-07-24T00:36:59;34.19;32.48;35.70;;
71020;Laerm;58902;51.436;5.980;2023-07-24T00:37:09;34.01;32.26;35.75;;
71020;Laerm;58902;51.436;5.980;2023-07-24T00:37:20;34.17;32.40;35.98;;
71020;Laerm;58902;51.436;5.980;2023-07-24T00:37:30;33.93;32.08;35.70;;
71020;Laerm;58902;51.436;5.980;2023-07-24T00:37:40;34.45;32.24;46.15;;
71020;Laerm;58902;51.436;5.980;2023-07-24T00:37:51;34.35;32.67;36.47;;
71020;Laerm;58902;51.436;5.980;2023-07-24T00:38:01;34.07;32.27;35.80;;
71020;Laerm;58902;51.436;5.980;2023-07-24T00:38:11;34.08;32.39;35.66;;
71020;Laerm;58902;51.436;5.980;2023-07-24T00:38:22;33.92;32.10;36.23;;
71020;Laerm;58902;51.436;5.980;2023-07-24T00:38:32;33.93;32.08;36.02;;
71020;Laerm;58902;51.436;5.980;2023-07-24T00:38:42;33.99;31.81;36.29;;
71020;Laerm;58902;51.436;5.980;2023-07-24T00:38:53;34.04;32.16;35.63;;
71020;Laerm;58902;51.436;5.980;2023-07-24T00:39:03;34.00;32.37;35.68;;
71020;Laerm;58902;51.436;5.980;2023-07-24T00:39:14;33.85;32.30;35.78;;
71020;Laerm;58902;51.436;5.980;2023-07-24T00:39:24;33.88;32.49;35.59;;
71020;Laerm;58902;51.436;5.980;2023-07-24T00:39:38;34.16;32.65;35.80;;
71020;Laerm;58902;51.436;5.980;2023-07-24T00:39:48;34.40;32.44;36.03;;
71020;Laerm;58902;51.436;5.980;2023-07-24T00:39:58;35.05;33.28;36.80;;
71020;Laerm;58902;51.436;5.980;2023-07-24T00:40:09;35.01;33.11;40.54;;
71020;Laerm;58902;51.436;5.980;2023-07-24T00:40:20;34.62;32.55;37.37;;
71020;Laerm;58902;51.436;5.980;2023-07-24T00:40:30;34.74;32.29;39.16;;
71020;Laerm;58902;51.436;5.980;2023-07-24T00:40:40;34.50;32.59;38.61;;
71020;Laerm;58902;51.436;5.980;2023-07-24T00:40:51;35.29;32.67;39.30;;
71020;Laerm;58902;51.436;5.980;2023-07-24T00:41:01;34.72;32.96;37.55;;
71020;Laerm;58902;51.436;5.980;2023-07-24T00:41:12;34.72;32.73;36.78;;
71020;Laerm;58902;51.436;5.980;2023-07-24T00:41:22;35.19;32.90;38.40;;
71020;Laerm;58902;51.436;5.980;2023-07-24T00:41:32;36.42;34.61;39.25;;
71020;Laerm;58902;51.436;5.980;2023-07-24T00:41:43;36.61;34.88;38.33;;
71020;Laerm;58902;51.436;5.980;2023-07-24T00:41:53;35.40;33.00;39.17;;
71020;Laerm;58902;51.436;5.980;2023-07-24T00:42:04;35.18;33.49;37.70;;
71020;Laerm;58902;51.436;5.980;2023-07-24T00:42:14;35.08;33.07;40.14;;
71020;Laerm;58902;51.436;5.980;2023-07-24T00:42:25;35.49;33.56;39.65;;
71020;Laerm;58902;51.436;5.980;2023-07-24T00:42:35;35.21;33.64;37.27;;
71020;Laerm;58902;51.436;5.980;2023-07-24T00:42:46;35.22;33.61;37.19;;
71020;Laerm;58902;51.436;5.980;2023-07-24T00:42:56;35.25;33.54;41.55;;
71020;Laerm;58902;51.436;5.980;2023-07-24T00:43:06;35.19;33.46;36.51;;
71020;Laerm;58902;51.436;5.980;2023-07-24T00:43:17;35.38;33.66;44.30;;
71020;Laerm;58902;51.436;5.980;2023-07-24T00:43:27;35.25;33.66;36.67;;
71020;Laerm;58902;51.436;5.980;2023-07-24T00:43:37;35.41;33.82;36.76;;
71020;Laerm;58902;51.436;5.980;2023-07-24T00:43:48;35.56;33.48;37.44;;
71020;Laerm;58902;51.436;5.980;2023-07-24T00:43:58;35.42;33.81;37.30;;
71020;Laerm;58902;51.436;5.980;2023-07-24T00:44:08;35.37;33.57;37.02;;
71020;Laerm;58902;51.436;5.980;2023-07-24T00:44:20;35.36;33.91;36.78;;
71020;Laerm;58902;51.436;5.980;2023-07-24T00:44:30;35.31;33.59;37.29;;
71020;Laerm;58902;51.436;5.980;2023-07-24T00:44:40;35.14;33.63;37.04;;
71020;Laerm;58902;51.436;5.980;2023-07-24T00:44:51;35.20;33.58;36.92;;
71020;Laerm;58902;51.436;5.980;2023-07-24T00:45:01;35.22;33.70;36.76;;
71020;Laerm;58902;51.436;5.980;2023-07-24T00:45:11;35.16;33.46;40.21;;
71020;Laerm;58902;51.436;5.980;2023-07-24T00:45:22;35.16;33.63;36.72;;
71020;Laerm;58902;51.436;5.980;2023-07-24T00:45:32;35.03;33.42;36.52;;
71020;Laerm;58902;51.436;5.980;2023-07-24T00:45:43;35.21;33.56;36.88;;
71020;Laerm;58902;51.436;5.980;2023-07-24T00:45:55;34.84;32.83;37.28;;
71020;Laerm;58902;51.436;5.980;2023-07-24T00:46:05;34.52;32.55;37.06;;
71020;Laerm;58902;51.436;5.980;2023-07-24T00:46:16;34.98;32.55;42.79;;
71020;Laerm;58902;51.436;5.980;2023-07-24T00:46:26;34.23;32.76;36.89;;
71020;Laerm;58902;51.436;5.980;2023-07-24T00:46:40;34.14;32.08;36.45;;
71020;Laerm;58902;51.436;5.980;2023-07-24T00:46:50;34.26;32.73;35.42;;
71020;Laerm;58902;51.436;5.980;2023-07-24T00:47:01;34.59;32.74;36.36;;
71020;Laerm;58902;51.436;5.980;2023-07-24T00:47:11;34.47;32.81;36.46;;
71020;Laerm;58902;51.436;5.980;2023-07-24T00:47:22;34.39;32.81;36.18;;
71020;Laerm;58902;51.436;5.980;2023-07-24T00:47:32;34.15;32.21;35.92;;
71020;Laerm;58902;51.436;5.980;2023-07-24T00:47:43;34.11;31.88;35.97;;
71020;Laerm;58902;51.436;5.980;2023-07-24T00:47:54;34.20;32.11;35.79;;
71020;Laerm;58902;51.436;5.980;2023-07-24T00:48:04;34.95;32.93;37.78;;
71020;Laerm;58902;51.436;5.980;2023-07-24T00:48:15;35.19;33.38;37.45;;
71020;Laerm;58902;51.436;5.980;2023-07-24T00:48:25;35.95;33.90;38.66;;
71020;Laerm;58902;51.436;5.980;2023-07-24T00:48:37;36.07;34.12;38.05;;
71020;Laerm;58902;51.436;5.980;2023-07-24T00:48:47;35.91;34.16;37.42;;
71020;Laerm;58902;51.436;5.980;2023-07-24T00:48:58;35.34;33.09;50.17;;
71020;Laerm;58902;51.436;5.980;2023-07-24T00:49:09;34.41;32.77;36.39;;
71020;Laerm;58902;51.436;5.980;2023-07-24T00:49:20;34.40;32.27;36.21;;
71020;Laerm;58902;51.436;5.980;2023-07-24T00:49:30;34.51;32.77;36.07;;
71020;Laerm;58902;51.436;5.980;2023-07-24T00:49:41;34.70;32.97;36.70;;
71020;Laerm;58902;51.436;5.980;2023-07-24T00:49:51;34.55;32.50;36.89;;
71020;Laerm;58902;51.436;5.980;2023-07-24T00:50:02;34.52;33.08;36.26;;
71020;Laerm;58902;51.436;5.980;2023-07-24T00:50:12;34.33;32.72;36.46;;
71020;Laerm;58902;51.436;5.980;2023-07-24T00:50:23;34.15;32.45;35.87;;
71020;Laerm;58902;51.436;5.980;2023-07-24T00:50:35;33.96;32.43;35.70;;
71020;Laerm;58902;51.436;5.980;2023-07-24T00:50:46;33.97;31.92;35.61;;
71020;Laerm;58902;51.436;5.980;2023-07-24T00:50:56;34.11;32.22;36.18;;
71020;Laerm;58902;51.436;5.980;2023-07-24T00:51:06;34.03;32.36;35.79;;
71020;Laerm;58902;51.436;5.980;2023-07-24T00:51:17;34.12;32.18;35.81;;
71020;Laerm;58902;51.436;5.980;2023-07-24T00:51:27;32.57;30.91;34.78;;
71020;Laerm;58902;51.436;5.980;2023-07-24T00:51:38;32.39;30.39;34.04;;
71020;Laerm;58902;51.436;5.980;2023-07-24T00:51:48;32.46;30.60;33.89;;
71020;Laerm;58902;51.436;5.980;2023-07-24T00:51:59;32.52;30.58;34.31;;
71020;Laerm;58902;51.436;5.980;2023-07-24T00:52:09;32.54;31.11;34.30;;
71020;Laerm;58902;51.436;5.980;2023-07-24T00:52:20;32.51;30.54;34.63;;
71020;Laerm;58902;51.436;5.980;2023-07-24T00:52:31;33.42;31.00;35.18;;
71020;Laerm;58902;51.436;5.980;2023-07-24T00:52:41;34.50;33.14;35.71;;
71020;Laerm;58902;51.436;5.980;2023-07-24T00:52:52;34.43;31.96;35.99;;
71020;Laerm;58902;51.436;5.980;2023-07-24T00:53:03;33.81;31.80;35.42;;
71020;Laerm;58902;51.436;5.980;2023-07-24T00:53:14;33.12;31.46;34.64;;
71020;Laerm;58902;51.436;5.980;2023-07-24T00:53:25;34.64;31.67;39.13;;
71020;Laerm;58902;51.436;5.980;2023-07-24T00:53:36;34.82;32.47;40.14;;
71020;Laerm;58902;51.436;5.980;2023-07-24T00:53:46;35.94;33.15;38.71;;
71020;Laerm;58902;51.436;5.980;2023-07-24T00:53:58;35.16;32.46;41.16;;
71020;Laerm;58902;51.436;5.980;2023-07-24T00:54:10;37.31;34.33;41.17;;
71020;Laerm;58902;51.436;5.980;2023-07-24T00:54:21;37.03;34.86;40.67;;
71020;Laerm;58902;51.436;5.980;2023-07-24T00:54:32;35.70;33.20;48.60;;
71020;Laerm;58902;51.436;5.980;2023-07-24T00:54:44;34.83;32.96;38.86;;
71020;Laerm;58902;51.436;5.980;2023-07-24T00:54:55;34.30;32.72;36.52;;
71020;Laerm;58902;51.436;5.980;2023-07-24T00:55:06;34.18;32.65;35.62;;
71020;Laerm;58902;51.436;5.980;2023-07-24T00:55:17;33.26;31.44;35.18;;
71020;Laerm;58902;51.436;5.980;2023-07-24T00:55:27;33.04;31.05;34.58;;
71020;Laerm;58902;51.436;5.980;2023-07-24T00:55:38;33.19;31.75;35.42;;
71020;Laerm;58902;51.436;5.980;2023-07-24T00:55:48;33.33;31.53;34.56;;
71020;Laerm;58902;51.436;5.980;2023-07-24T00:55:59;33.68;32.23;34.80;;
71020;Laerm;58902;51.436;5.980;2023-07-24T00:56:12;33.42;31.48;35.12;;
71020;Laerm;58902;51.436;5.980;2023-07-24T00:56:23;33.84;32.08;35.96;;
71020;Laerm;58902;51.436;5.980;2023-07-24T00:56:33;33.77;32.19;35.00;;
71020;Laerm;58902;51.436;5.980;2023-07-24T00:56:44;33.10;31.42;36.19;;
71020;Laerm;58902;51.436;5.980;2023-07-24T00:56:55;32.93;30.86;34.24;;
71020;Laerm;58902;51.436;5.980;2023-07-24T00:57:05;32.85;31.23;34.29;;
71020;Laerm;58902;51.436;5.980;2023-07-24T00:57:16;32.88;31.44;34.80;;
71020;Laerm;58902;51.436;5.980;2023-07-24T00:57:26;32.79;31.35;34.07;;
71020;Laerm;58902;51.436;5.980;2023-07-24T00:57:37;33.15;31.08;36.88;;
71020;Laerm;58902;51.436;5.980;2023-07-24T00:57:47;32.32;30.61;33.62;;
71020;Laerm;58902;51.436;5.980;2023-07-24T00:57:58;32.33;30.78;34.16;;
71020;Laerm;58902;51.436;5.980;2023-07-24T00:58:10;32.33;30.84;33.94;;
71020;Laerm;58902;51.436;5.980;2023-07-24T00:58:21;32.65;30.98;34.25;;
71020;Laerm;58902;51.436;5.980;2023-07-24T00:58:32;32.72;31.07;34.28;;
71020;Laerm;58902;51.436;5.980;2023-07-24T00:58:43;32.50;30.74;35.04;;
71020;Laerm;58902;51.436;5.980;2023-07-24T00:58:54;32.60;30.94;34.39;;